Time;durP1;ratioP1;P1;durP2;ratioP2;P2;SDS_P1;SDS_P2;PMS_P1;PMS_P2;Temp;Humidity;BMP_temperature;BMP_pressure;BME280_temperature;BME280_humidity;BME280_pressure;Samples;Min_cycle;Max_cycle;Signal;HPM_P1;HPM_P2
2023/08/12 00:00:33;;;;;;;0.10;0.10;;;14.40;99.90;;;;;;5082190;28;20108;-77
2023/08/12 00:02:59;;;;;;;0.10;0.10;;;17.00;99.90;;;;;;5082573;28;20159;-76
2023/08/12 00:05:25;;;;;;;0.10;0.10;;;13.80;99.90;;;;;;5063996;28;20552;-76
2023/08/12 00:07:51;;;;;;;0.10;0.10;;;14.30;99.90;;;;;;5082358;28;20020;-77
2023/08/12 00:10:17;;;;;;;0.10;0.10;;;13.90;99.90;;;;;;5081942;28;20020;-81
2023/08/12 00:12:43;;;;;;;0.30;0.30;;;;;;;;;;5082149;28;20024;-77
2023/08/12 00:15:10;;;;;;;0.10;0.10;;;13.50;99.90;;;;;;5081707;28;20074;-75
2023/08/12 00:17:37;;;;;;;0.10;0.10;;;13.70;99.90;;;;;;5081784;28;20046;-76
2023/08/12 00:20:08;;;;;;;0.10;0.10;;;13.30;99.90;;;;;;5085062;28;20024;-76
2023/08/12 00:22:34;;;;;;;0.03;0.03;;;13.70;99.90;;;;;;5082177;28;20085;-76
2023/08/12 00:25:01;;;;;;;0.10;0.10;;;13.70;99.90;;;;;;5085006;28;20321;-77
2023/08/12 00:27:26;;;;;;;0.10;0.10;;;13.70;99.90;;;;;;5066794;28;20233;-76
2023/08/12 00:29:53;;;;;;;0.10;0.10;;;13.50;99.90;;;;;;5083960;28;20031;-77
2023/08/12 00:32:19;;;;;;;0.10;0.10;;;14.00;99.90;;;;;;5083287;28;20016;-76
2023/08/12 00:34:45;;;;;;;0.10;0.10;;;14.60;99.90;;;;;;5082269;28;20424;-76
2023/08/12 00:37:11;;;;;;;0.10;0.10;;;14.10;99.90;;;;;;5081215;28;20028;-77
2023/08/12 00:39:37;;;;;;;0.10;0.10;;;15.10;99.90;;;;;;5081639;28;20720;-76
2023/08/12 00:42:03;;;;;;;0.10;0.10;;;15.20;99.90;;;;;;5081798;28;20118;-77
2023/08/12 00:44:29;;;;;;;0.00;0.00;;;15.20;99.90;;;;;;5062868;28;20052;-77
2023/08/12 00:46:55;;;;;;;0.10;0.10;;;16.40;99.90;;;;;;5081839;28;20311;-76
2023/08/12 00:49:22;;;;;;;7.03;3.70;;;16.20;99.90;;;;;;5063724;28;20025;-77
2023/08/12 00:51:50;;;;;;;0.17;0.17;;;16.30;99.90;;;;;;5081449;28;20107;-77
2023/08/12 00:54:17;;;;;;;1.50;1.48;;;16.30;99.90;;;;;;5081887;28;20473;-77
2023/08/12 00:56:44;;;;;;;0.10;0.10;;;16.00;99.90;;;;;;5062499;28;20145;-76
2023/08/12 00:59:12;;;;;;;0.10;0.10;;;15.90;99.90;;;;;;5062810;28;20024;-74
2023/08/12 01:01:43;;;;;;;0.10;0.10;;;15.60;99.90;;;;;;5062826;28;20051;-74
2023/08/12 01:04:09;;;;;;;0.10;0.10;;;15.10;99.90;;;;;;5081138;28;20028;-77
2023/08/12 01:06:36;;;;;;;0.70;0.70;;;15.00;99.90;;;;;;5081248;28;20123;-76
2023/08/12 01:09:05;;;;;;;0.10;0.10;;;15.20;99.90;;;;;;5080688;28;20448;-76
2023/08/12 01:11:50;;;;;;;0.10;0.10;;;15.30;99.90;;;;;;5081228;28;20020;-74
2023/08/12 01:14:43;;;;;;;0.10;0.10;;;15.20;99.90;;;;;;5083201;28;20471;-75
2023/08/12 01:17:11;;;;;;;11.50;10.70;;;15.20;99.90;;;;;;5080891;28;20218;-77
2023/08/12 01:19:39;;;;;;;0.10;0.10;;;14.90;99.90;;;;;;5080652;28;20181;-74
2023/08/12 01:22:10;;;;;;;1.20;1.20;;;15.00;99.90;;;;;;5080837;28;20023;-74
2023/08/12 01:24:41;;;;;;;0.10;0.10;;;14.60;99.90;;;;;;5080941;28;20115;-75
2023/08/12 01:27:08;;;;;;;0.10;0.10;;;14.60;99.90;;;;;;5080672;28;20051;-75
2023/08/12 01:29:41;;;;;;;0.10;0.10;;;14.50;99.90;;;;;;5080852;28;20150;-75
2023/08/12 01:32:25;;;;;;;0.10;0.10;;;14.90;99.90;;;;;;5080782;28;20027;-75
2023/08/12 01:35:17;;;;;;;0.10;0.10;;;15.90;99.90;;;;;;5080897;28;20739;-75
2023/08/12 01:37:44;;;;;;;0.10;0.10;;;15.50;99.90;;;;;;5067707;28;20040;-75
2023/08/12 01:40:11;;;;;;;0.15;0.15;;;15.80;99.90;;;;;;5062245;28;20715;-75
2023/08/12 01:42:40;;;;;;;0.57;0.57;;;15.60;99.90;;;;;;5081122;28;20573;-74
2023/08/12 01:45:06;;;;;;;0.20;0.20;;;15.70;99.90;;;;;;5080394;28;20715;-74
2023/08/12 01:47:32;;;;;;;0.10;0.10;;;15.40;99.90;;;;;;5079981;28;20406;-74
2023/08/12 01:49:59;;;;;;;0.10;0.10;;;14.70;99.90;;;;;;5080214;28;20483;-74
2023/08/12 01:52:25;;;;;;;0.45;0.45;;;14.20;99.90;;;;;;5080482;28;20020;-77
2023/08/12 01:54:51;;;;;;;0.10;0.10;;;14.00;99.90;;;;;;5080355;28;20505;-77
2023/08/12 01:57:17;;;;;;;0.10;0.10;;;14.30;99.90;;;;;;5081235;28;20142;-77
2023/08/12 01:59:44;;;;;;;0.10;0.10;;;14.90;99.90;;;;;;5081061;28;20432;-76
2023/08/12 02:02:10;;;;;;;0.10;0.10;;;14.50;99.90;;;;;;5080192;28;20052;-77
2023/08/12 02:04:39;;;;;;;0.25;0.25;;;14.30;99.90;;;;;;5080404;28;20028;-77
2023/08/12 02:07:05;;;;;;;0.10;0.10;;;14.70;99.90;;;;;;5061347;28;20028;-76
2023/08/12 02:09:31;;;;;;;0.10;0.10;;;14.80;99.90;;;;;;5079145;28;20100;-77
2023/08/12 02:11:57;;;;;;;0.10;0.10;;;14.90;99.90;;;;;;5078997;28;20251;-77
2023/08/12 02:14:23;;;;;;;0.13;0.13;;;14.50;99.90;;;;;;5078981;28;20020;-77
2023/08/12 02:16:52;;;;;;;0.10;0.10;;;14.40;99.90;;;;;;5080484;28;20019;-76
2023/08/12 02:19:18;;;;;;;0.15;0.15;;;15.10;99.90;;;;;;5079192;28;20216;-77
2023/08/12 02:21:44;;;;;;;0.10;0.10;;;15.40;99.90;;;;;;5080634;28;20308;-74
2023/08/12 02:24:10;;;;;;;0.10;0.10;;;15.80;99.90;;;;;;5062717;28;20248;-75
2023/08/12 02:26:37;;;;;;;0.10;0.10;;;15.90;99.90;;;;;;5080578;28;20031;-74
2023/08/12 02:29:04;;;;;;;0.10;0.10;;;16.00;99.90;;;;;;5080200;28;20166;-74
2023/08/12 02:31:29;;;;;;;0.10;0.10;;;15.40;99.90;;;;;;5080179;28;20331;-74
2023/08/12 02:33:56;;;;;;;0.10;0.10;;;;;;;;;;5079663;28;20248;-74
2023/08/12 02:36:22;;;;;;;0.10;0.10;;;16.30;99.90;;;;;;5079912;28;20027;-74
2023/08/12 02:38:48;;;;;;;0.10;0.10;;;14.70;99.90;;;;;;5062006;28;20597;-74
2023/08/12 02:41:14;;;;;;;0.17;0.17;;;15.60;99.90;;;;;;5080674;28;20699;-75
2023/08/12 02:43:40;;;;;;;0.10;0.10;;;16.00;99.90;;;;;;5080803;28;20497;-75
2023/08/12 02:46:07;;;;;;;0.47;0.47;;;16.00;99.90;;;;;;5080393;28;20109;-76
2023/08/12 02:48:32;;;;;;;0.13;0.13;;;16.30;99.90;;;;;;5079940;28;20292;-75
2023/08/12 02:50:58;;;;;;;0.10;0.10;;;16.60;99.90;;;;;;5079696;28;20101;-75
2023/08/12 02:53:25;;;;;;;0.10;0.10;;;16.90;99.90;;;;;;5079643;28;20044;-75
2023/08/12 02:55:51;;;;;;;0.10;0.10;;;17.00;99.90;;;;;;5080236;28;20114;-76
2023/08/12 02:58:17;;;;;;;0.10;0.10;;;17.40;99.90;;;;;;5061153;28;20658;-80
2023/08/12 03:00:43;;;;;;;0.10;0.10;;;17.00;99.90;;;;;;5082730;28;20131;-74
2023/08/12 03:03:10;;;;;;;0.10;0.10;;;17.30;99.90;;;;;;5085121;28;20032;-75
2023/08/12 03:05:36;;;;;;;0.10;0.10;;;17.10;99.90;;;;;;5084016;28;20040;-75
2023/08/12 03:08:03;;;;;;;0.10;0.10;;;16.60;99.90;;;;;;5084311;28;20117;-75
2023/08/12 03:10:30;;;;;;;0.10;0.10;;;17.00;99.90;;;;;;5084418;28;20628;-75
2023/08/12 03:12:56;;;;;;;0.10;0.10;;;17.30;99.90;;;;;;5066893;28;20114;-75
2023/08/12 03:15:22;;;;;;;0.10;0.10;;;17.10;99.90;;;;;;5085179;28;20024;-75
2023/08/12 03:17:48;;;;;;;0.10;0.10;;;18.10;99.90;;;;;;5084505;28;20142;-75
2023/08/12 03:20:14;;;;;;;0.20;0.20;;;16.80;99.90;;;;;;5084020;28;20024;-75
2023/08/12 03:22:40;;;;;;;0.10;0.10;;;17.10;99.90;;;;;;5084410;28;20023;-75
2023/08/12 03:25:06;;;;;;;0.10;0.10;;;17.20;99.90;;;;;;5082509;28;20043;-75
2023/08/12 03:27:32;;;;;;;0.10;0.10;;;17.40;99.90;;;;;;5084539;28;20237;-75
2023/08/12 03:29:58;;;;;;;0.10;0.10;;;17.50;99.90;;;;;;5064872;28;20031;-75
2023/08/12 03:32:27;;;;;;;0.52;0.52;;;17.40;99.90;;;;;;5083798;28;20016;-75
2023/08/12 03:34:53;;;;;;;0.20;0.20;;;17.70;99.90;;;;;;5083028;28;20044;-75
2023/08/12 03:37:19;;;;;;;0.10;0.10;;;16.90;99.90;;;;;;5066688;28;20035;-74
2023/08/12 03:39:46;;;;;;;0.63;0.60;;;17.40;99.90;;;;;;5065739;28;20312;-75
2023/08/12 03:42:12;;;;;;;0.10;0.10;;;17.60;99.90;;;;;;5064755;28;20028;-75
2023/08/12 03:44:38;;;;;;;1.08;1.02;;;17.30;99.90;;;;;;5082531;28;20024;-75
2023/08/12 03:47:04;;;;;;;1.92;1.65;;;17.30;99.90;;;;;;5082663;28;20023;-75
2023/08/12 03:49:30;;;;;;;0.10;0.10;;;17.30;99.90;;;;;;5082812;28;20024;-75
2023/08/12 03:51:56;;;;;;;0.10;0.10;;;17.20;99.90;;;;;;5084005;28;20465;-74
2023/08/12 03:54:22;;;;;;;0.10;0.10;;;17.20;99.90;;;;;;5085077;28;20027;-74
2023/08/12 03:56:51;;;;;;;4.95;4.53;;;16.90;99.90;;;;;;5099568;28;20080;-75
2023/08/12 03:59:17;;;;;;;5.95;4.28;;;17.10;99.90;;;;;;5083208;28;20519;-75
2023/08/12 04:01:43;;;;;;;1.00;1.00;;;16.50;99.90;;;;;;5083300;28;20132;-76
2023/08/12 04:04:09;;;;;;;0.10;0.10;;;16.70;99.90;;;;;;5082053;28;20028;-74
2023/08/12 04:06:35;;;;;;;0.10;0.10;;;16.60;99.90;;;;;;5082368;28;20040;-74
2023/08/12 04:09:02;;;;;;;0.10;0.10;;;16.60;99.90;;;;;;5081618;28;20560;-75
2023/08/12 04:11:28;;;;;;;0.55;0.55;;;16.70;99.90;;;;;;5081420;28;20635;-74
2023/08/12 04:13:54;;;;;;;1.50;1.48;;;16.50;99.90;;;;;;5082888;28;20030;-74
2023/08/12 04:16:20;;;;;;;0.10;0.10;;;16.20;99.90;;;;;;5084324;28;20078;-74
2023/08/12 04:18:46;;;;;;;0.10;0.10;;;15.80;99.90;;;;;;5083916;28;20016;-74
2023/08/12 04:21:12;;;;;;;0.10;0.10;;;16.10;99.90;;;;;;5083096;28;20097;-74
2023/08/12 04:23:38;;;;;;;0.10;0.10;;;16.50;99.90;;;;;;5064433;28;20454;-75
2023/08/12 04:26:04;;;;;;;0.10;0.10;;;16.80;99.90;;;;;;5063593;28;20036;-76
2023/08/12 04:28:30;;;;;;;0.10;0.10;;;16.70;99.90;;;;;;5081710;28;20017;-74
2023/08/12 04:30:56;;;;;;;0.20;0.20;;;17.10;99.90;;;;;;5081584;28;20020;-74
2023/08/12 04:33:23;;;;;;;0.10;0.10;;;17.30;99.90;;;;;;5081879;28;20025;-74
2023/08/12 04:35:49;;;;;;;0.10;0.10;;;17.00;99.90;;;;;;5081826;28;20524;-75
2023/08/12 04:38:16;;;;;;;0.20;0.20;;;17.20;99.90;;;;;;5064853;28;20309;-74
2023/08/12 04:40:42;;;;;;;0.10;0.10;;;14.20;99.90;;;;;;5065790;28;20067;-74
2023/08/12 04:43:11;;;;;;;7.55;7.22;;;17.10;99.90;;;;;;5064659;28;20638;-74
2023/08/12 04:45:38;;;;;;;0.20;0.20;;;17.20;99.90;;;;;;5063693;28;20093;-74
2023/08/12 04:48:05;;;;;;;0.20;0.20;;;16.50;99.90;;;;;;5065071;28;20155;-77
2023/08/12 04:50:33;;;;;;;0.10;0.10;;;16.40;99.90;;;;;;5081484;28;20028;-75
2023/08/12 04:53:00;;;;;;;0.20;0.20;;;16.90;99.90;;;;;;5081545;28;20027;-75
2023/08/12 04:55:27;;;;;;;0.30;0.30;;;17.60;99.90;;;;;;5064538;28;20020;-74
2023/08/12 04:57:54;;;;;;;0.20;0.20;;;17.00;99.90;;;;;;5063766;28;20028;-75
2023/08/12 05:00:20;;;;;;;8.10;7.68;;;17.00;99.90;;;;;;5081083;28;20606;-77
2023/08/12 05:02:46;;;;;;;0.20;0.20;;;17.10;99.90;;;;;;5063802;28;20024;-74
2023/08/12 05:05:13;;;;;;;0.50;0.50;;;15.30;99.90;;;;;;5082226;28;20232;-75
2023/08/12 05:07:39;;;;;;;0.15;0.15;;;17.00;99.90;;;;;;5063842;28;20028;-75
2023/08/12 05:10:06;;;;;;;0.65;0.65;;;17.10;99.90;;;;;;5063690;28;20077;-77
2023/08/12 05:12:32;;;;;;;0.10;0.10;;;17.30;99.90;;;;;;5081049;28;20415;-75
2023/08/12 05:14:58;;;;;;;0.10;0.10;;;16.90;99.90;;;;;;5081078;28;20062;-75
2023/08/12 05:17:25;;;;;;;0.10;0.10;;;16.40;99.90;;;;;;5080573;28;20016;-76
2023/08/12 05:19:53;;;;;;;0.38;0.38;;;16.40;99.90;;;;;;5081468;28;20425;-75
2023/08/12 05:22:19;;;;;;;0.20;0.20;;;16.30;99.90;;;;;;5081454;28;20024;-74
2023/08/12 05:24:45;;;;;;;0.10;0.10;;;16.40;99.90;;;;;;5080391;28;20138;-75
2023/08/12 05:27:11;;;;;;;0.10;0.10;;;16.40;99.90;;;;;;5080472;28;20596;-76
2023/08/12 05:29:37;;;;;;;0.28;0.28;;;17.00;99.90;;;;;;5082387;28;20610;-76
2023/08/12 05:32:03;;;;;;;0.15;0.15;;;16.80;99.90;;;;;;5083266;28;20028;-77
2023/08/12 05:34:29;;;;;;;0.10;0.10;;;17.20;99.90;;;;;;5080965;28;20009;-74
2023/08/12 05:36:55;;;;;;;0.10;0.10;;;17.60;99.90;;;;;;5081778;28;20025;-77
2023/08/12 05:39:21;;;;;;;0.20;0.20;;;17.70;99.90;;;;;;5081966;28;20042;-74
2023/08/12 05:41:47;;;;;;;0.43;0.43;;;;;;;;;;5081490;28;20024;-74
2023/08/12 05:44:14;;;;;;;0.10;0.10;;;16.90;99.90;;;;;;5081299;28;20089;-74
2023/08/12 05:46:40;;;;;;;0.20;0.20;;;17.20;99.90;;;;;;5080621;28;20020;-74
2023/08/12 05:49:06;;;;;;;0.10;0.10;;;17.70;99.90;;;;;;5062296;28;20024;-75
2023/08/12 05:51:32;;;;;;;1.27;1.20;;;18.00;99.90;;;;;;5061203;28;20520;-74
2023/08/12 05:53:58;;;;;;;0.10;0.10;;;18.10;99.90;;;;;;5061023;28;20114;-75
2023/08/12 05:56:24;;;;;;;0.10;0.10;;;18.20;99.90;;;;;;5079713;28;20028;-77
2023/08/12 05:58:50;;;;;;;0.20;0.20;;;18.40;99.90;;;;;;5080025;28;20030;-74
2023/08/12 06:01:16;;;;;;;3.63;1.88;;;18.40;99.90;;;;;;5080067;28;20485;-76
2023/08/12 06:03:42;;;;;;;0.65;0.65;;;18.70;99.90;;;;;;5080632;28;20085;-73
2023/08/12 06:06:08;;;;;;;0.10;0.10;;;18.70;99.90;;;;;;5079699;28;20288;-77
2023/08/12 06:08:37;;;;;;;0.10;0.10;;;18.70;99.90;;;;;;5061995;28;20020;-76
2023/08/12 06:11:03;;;;;;;4.18;3.83;;;18.80;99.90;;;;;;5061994;28;20028;-75
2023/08/12 06:13:28;;;;;;;0.10;0.10;;;18.80;99.90;;;;;;5080692;28;20024;-76
2023/08/12 06:15:54;;;;;;;0.10;0.10;;;19.00;99.90;;;;;;5081183;28;20020;-76
2023/08/12 06:18:20;;;;;;;0.10;0.10;;;19.00;99.90;;;;;;5080132;28;20588;-75
2023/08/12 06:20:47;;;;;;;1.30;1.30;;;19.10;99.90;;;;;;5080967;28;20016;-75
2023/08/12 06:23:13;;;;;;;2.03;1.48;;;18.80;99.90;;;;;;5080474;28;20537;-75
2023/08/12 06:25:39;;;;;;;1.75;1.65;;;18.80;99.90;;;;;;5079615;28;20062;-75
2023/08/12 06:28:05;;;;;;;0.10;0.10;;;18.70;99.90;;;;;;5079675;28;20099;-77
2023/08/12 06:30:31;;;;;;;0.10;0.10;;;18.80;99.90;;;;;;5080596;28;20099;-75
2023/08/12 06:32:57;;;;;;;0.10;0.10;;;;;;;;;;5079991;28;20028;-80
2023/08/12 06:35:23;;;;;;;0.10;0.10;;;18.90;99.90;;;;;;5061980;28;20457;-84
2023/08/12 06:37:49;;;;;;;0.10;0.10;;;19.50;99.90;;;;;;5080675;28;20123;-75
2023/08/12 06:40:15;;;;;;;0.63;0.63;;;19.10;99.90;;;;;;5080204;28;20013;-77
2023/08/12 06:42:41;;;;;;;0.10;0.10;;;19.00;99.90;;;;;;5080074;28;20012;-76
2023/08/12 06:45:08;;;;;;;1.45;0.57;;;18.50;99.90;;;;;;5080557;28;20705;-79
2023/08/12 06:47:35;;;;;;;0.10;0.10;;;17.80;99.90;;;;;;5062295;28;20638;-79
2023/08/12 06:50:01;;;;;;;0.10;0.10;;;17.40;99.90;;;;;;5062018;28;20344;-77
2023/08/12 06:52:27;;;;;;;0.10;0.10;;;17.10;99.90;;;;;;5080306;28;20076;-79
2023/08/12 06:54:53;;;;;;;0.40;0.40;;;16.80;99.90;;;;;;5080099;28;20035;-76
2023/08/12 06:57:20;;;;;;;0.10;0.10;;;16.90;99.90;;;;;;5080261;28;20285;-79
2023/08/12 06:59:46;;;;;;;0.35;0.35;;;17.40;99.90;;;;;;5080817;28;20020;-77
2023/08/12 07:02:12;;;;;;;0.38;0.38;;;16.50;99.90;;;;;;5039615;28;20132;-77
2023/08/12 07:04:38;;;;;;;0.10;0.10;;;14.90;99.90;;;;;;5041130;28;20036;-78
2023/08/12 07:07:05;;;;;;;0.10;0.10;;;16.90;99.90;;;;;;5039809;28;20024;-79
2023/08/12 07:09:31;;;;;;;0.10;0.10;;;16.80;99.90;;;;;;5039538;28;20326;-78
2023/08/12 07:11:57;;;;;;;0.10;0.10;;;16.80;99.90;;;;;;5038844;28;20023;-77
2023/08/12 07:14:24;;;;;;;0.10;0.10;;;16.90;99.90;;;;;;5040204;28;20104;-79
2023/08/12 07:16:49;;;;;;;0.10;0.10;;;16.80;99.90;;;;;;5038600;28;20215;-78
2023/08/12 07:19:16;;;;;;;0.10;0.10;;;16.80;99.90;;;;;;5040707;28;20116;-79
2023/08/12 07:21:42;;;;;;;0.15;0.15;;;16.80;99.90;;;;;;5039569;28;20418;-76
2023/08/12 07:24:08;;;;;;;4.05;3.80;;;16.80;99.90;;;;;;5039194;28;20025;-78
2023/08/12 07:26:34;;;;;;;0.10;0.10;;;16.90;99.90;;;;;;5039896;28;20031;-76
2023/08/12 07:29:00;;;;;;;0.17;0.17;;;17.00;99.90;;;;;;5038450;28;20013;-77
2023/08/12 07:31:26;;;;;;;0.10;0.10;;;17.30;99.90;;;;;;5037711;28;20036;-80
2023/08/12 07:33:52;;;;;;;0.10;0.10;;;17.10;99.90;;;;;;5038488;28;20017;-77
2023/08/12 07:36:19;;;;;;;0.20;0.20;;;17.20;99.90;;;;;;5038908;28;20033;-78
2023/08/12 07:38:45;;;;;;;1.05;1.05;;;17.40;99.90;;;;;;5039120;28;20021;-79
2023/08/12 07:41:11;;;;;;;0.20;0.20;;;17.60;99.90;;;;;;5038303;28;20594;-79
2023/08/12 07:43:38;;;;;;;0.10;0.10;;;17.20;99.90;;;;;;5037456;28;20709;-76
2023/08/12 07:46:04;;;;;;;0.10;0.10;;;17.40;99.90;;;;;;5041039;28;20037;-88
2023/08/12 07:48:30;;;;;;;1.20;1.20;;;17.70;99.90;;;;;;5045115;28;20020;-77
2023/08/12 07:50:59;;;;;;;0.10;0.10;;;17.90;99.90;;;;;;5042266;28;20013;-78
2023/08/12 07:53:26;;;;;;;0.30;0.30;;;17.30;99.90;;;;;;5042409;28;20651;-78
2023/08/12 07:55:52;;;;;;;0.32;0.32;;;;;;;;;;5041342;28;20096;-76
2023/08/12 07:58:19;;;;;;;0.10;0.10;;;18.70;99.90;;;;;;5040356;28;20086;-76
2023/08/12 08:00:45;;;;;;;0.10;0.10;;;18.50;99.90;;;;;;5056984;28;20582;-77
2023/08/12 08:03:11;;;;;;;0.30;0.30;;;18.70;99.90;;;;;;5063339;28;20514;-77
2023/08/12 08:05:41;;;;;;;0.10;0.10;;;18.90;99.90;;;;;;5083416;28;20093;-77
2023/08/12 08:08:08;;;;;;;0.47;0.43;;;19.10;99.90;;;;;;5082406;28;20028;-77
2023/08/12 08:10:34;;;;;;;0.10;0.10;;;19.20;99.90;;;;;;5082032;28;20024;-77
2023/08/12 08:13:00;;;;;;;0.20;0.20;;;19.10;99.90;;;;;;5082320;28;20605;-77
2023/08/12 08:15:26;;;;;;;0.10;0.10;;;19.60;99.90;;;;;;5082046;28;20028;-80
2023/08/12 08:17:52;;;;;;;0.20;0.20;;;19.80;99.90;;;;;;5081778;28;20024;-78
2023/08/12 08:20:18;;;;;;;0.43;0.43;;;20.00;99.90;;;;;;5082410;28;20100;-79
2023/08/12 08:22:45;;;;;;;0.52;0.52;;;19.90;99.90;;;;;;5082820;28;20661;-76
2023/08/12 08:25:11;;;;;;;0.13;0.13;;;19.90;99.90;;;;;;5063658;28;20031;-86
2023/08/12 08:27:36;;;;;;;0.15;0.15;;;19.90;99.90;;;;;;5063362;28;20732;-79
2023/08/12 08:30:03;;;;;;;0.10;0.10;;;20.10;99.90;;;;;;5082350;28;20028;-83
2023/08/12 08:32:29;;;;;;;0.95;0.95;;;20.30;99.90;;;;;;5081840;28;20122;-77
2023/08/12 08:34:55;;;;;;;1.45;0.73;;;20.40;99.90;;;;;;5062474;28;20028;-80
2023/08/12 08:37:20;;;;;;;0.30;0.30;;;20.50;99.90;;;;;;5081423;28;20424;-78
2023/08/12 08:39:46;;;;;;;0.20;0.20;;;20.80;99.90;;;;;;5081382;28;20492;-76
2023/08/12 08:42:18;;;;;;;0.38;0.38;;;20.70;99.90;;;;;;5081177;28;20178;-78
2023/08/12 08:44:49;;;;;;;1.50;1.40;;;20.70;99.90;;;;;;5081515;28;20031;-76
2023/08/12 08:47:20;;;;;;;0.38;0.38;;;21.00;99.90;;;;;;5082028;28;20571;-79
2023/08/12 08:49:47;;;;;;;0.10;0.10;;;21.00;99.90;;;;;;5063381;28;20030;-77
2023/08/12 08:52:13;;;;;;;0.10;0.10;;;;;;;;;;5081649;28;20535;-81
2023/08/12 08:54:39;;;;;;;0.10;0.10;;;21.50;99.90;;;;;;5063259;28;20036;-76
2023/08/12 08:57:09;;;;;;;0.20;0.20;;;21.60;99.90;;;;;;5080411;28;20020;-82
2023/08/12 08:59:35;;;;;;;0.10;0.10;;;22.00;99.90;;;;;;5062735;28;20020;-80
2023/08/12 09:02:01;;;;;;;0.10;0.10;;;22.00;99.90;;;;;;5081059;28;20036;-77
2023/08/12 09:04:28;;;;;;;0.20;0.20;;;22.60;99.90;;;;;;5081529;28;20257;-80
2023/08/12 09:06:55;;;;;;;0.52;0.40;;;22.10;99.90;;;;;;5080624;28;20710;-77
2023/08/12 09:09:23;;;;;;;0.73;0.73;;;22.00;99.90;;;;;;5080839;28;20511;-76
2023/08/12 09:11:50;;;;;;;0.10;0.10;;;22.20;99.90;;;;;;5063215;28;20089;-83
2023/08/12 09:14:16;;;;;;;0.35;0.20;;;22.30;99.90;;;;;;5086957;28;20409;-79
2023/08/12 09:16:45;;;;;;;0.10;0.10;;;22.50;99.90;;;;;;5084536;28;20653;-78
2023/08/12 09:19:12;;;;;;;0.10;0.10;;;22.60;99.50;;;;;;5096200;28;20183;-78
2023/08/12 09:21:38;;;;;;;0.10;0.10;;;22.70;99.90;;;;;;5062458;28;20020;-76
2023/08/12 09:24:08;;;;;;;0.20;0.20;;;22.90;99.90;;;;;;5062647;28;20017;-85
2023/08/12 09:26:34;;;;;;;0.10;0.10;;;23.10;99.50;;;;;;5080440;28;20115;-78
2023/08/12 09:29:00;;;;;;;0.20;0.20;;;23.00;99.10;;;;;;5080553;28;20142;-78
2023/08/12 09:31:28;;;;;;;0.10;0.10;;;23.20;99.40;;;;;;5080415;28;20028;-76
2023/08/12 09:34:07;;;;;;;0.10;0.10;;;23.70;98.40;;;;;;5061970;28;20020;-83
2023/08/12 09:36:34;;;;;;;0.10;0.10;;;22.10;98.00;;;;;;5080246;28;20059;-80
2023/08/12 09:39:00;;;;;;;0.10;0.10;;;24.10;98.10;;;;;;5079883;28;20313;-78
2023/08/12 09:41:29;;;;;;;0.43;0.43;;;24.00;98.00;;;;;;5080521;28;20054;-78
2023/08/12 09:43:59;;;;;;;0.10;0.10;;;21.80;97.40;;;;;;5081889;28;20024;-76
2023/08/12 09:46:25;;;;;;;0.10;0.10;;;24.00;96.90;;;;;;5079752;28;20047;-77
2023/08/12 09:48:52;;;;;;;0.10;0.10;;;20.90;96.80;;;;;;5079611;28;20020;-77
2023/08/12 09:51:18;;;;;;;0.73;0.73;;;24.50;96.70;;;;;;5080641;28;20106;-78
2023/08/12 09:53:47;;;;;;;0.10;0.10;;;24.70;96.20;;;;;;5080177;28;20112;-77
2023/08/12 09:56:17;;;;;;;0.30;0.30;;;24.70;96.00;;;;;;5079927;28;20607;-76
2023/08/12 09:58:44;;;;;;;0.10;0.10;;;24.40;96.10;;;;;;5080582;28;20081;-84
2023/08/12 10:01:13;;;;;;;2.72;1.63;;;24.00;96.50;;;;;;5080314;28;20044;-77
2023/08/12 10:03:40;;;;;;;0.10;0.10;;;24.30;95.90;;;;;;5061855;28;20032;-77
2023/08/12 10:06:06;;;;;;;0.10;0.10;;;24.20;96.40;;;;;;5079013;28;20111;-76
2023/08/12 10:08:34;;;;;;;0.30;0.30;;;24.70;96.70;;;;;;5061654;28;20020;-75
2023/08/12 10:11:00;;;;;;;0.10;0.10;;;24.60;96.10;;;;;;5079522;28;20027;-75
2023/08/12 10:13:29;;;;;;;0.10;0.10;;;24.80;95.20;;;;;;5079770;28;20046;-76
2023/08/12 10:15:56;;;;;;;0.10;0.10;;;25.00;95.20;;;;;;5079739;28;20709;-77
2023/08/12 10:18:23;;;;;;;0.52;0.50;;;25.00;95.10;;;;;;5078877;28;20026;-78
2023/08/12 10:20:52;;;;;;;0.10;0.10;;;25.30;94.80;;;;;;5080290;28;20570;-77
2023/08/12 10:23:18;;;;;;;3.10;1.27;;;25.30;94.20;;;;;;5079822;28;20210;-77
2023/08/12 10:25:45;;;;;;;0.00;0.00;;;25.30;94.60;;;;;;5079982;28;20768;-81
2023/08/12 10:28:12;;;;;;;0.00;0.00;;;25.30;94.80;;;;;;5079765;28;20080;-77
2023/08/12 10:30:41;;;;;;;0.10;0.10;;;25.30;94.60;;;;;;5079378;28;20680;-80
2023/08/12 10:33:08;;;;;;;0.10;0.10;;;25.30;94.90;;;;;;5061128;28;20056;-80
2023/08/12 10:35:45;;;;;;;1.80;1.75;;;25.20;94.00;;;;;;5079044;28;20032;-77
2023/08/12 10:38:21;;;;;;;0.10;0.10;;;25.20;93.90;;;;;;5060223;28;20300;-78
2023/08/12 10:40:48;;;;;;;0.20;0.20;;;25.40;93.80;;;;;;5078595;28;20106;-79
2023/08/12 10:43:15;;;;;;;0.00;0.00;;;25.70;92.80;;;;;;5078468;28;20658;-76
2023/08/12 10:45:49;;;;;;;0.00;0.00;;;26.50;92.20;;;;;;5062420;28;20047;-77
2023/08/12 10:48:25;;;;;;;0.10;0.10;;;27.30;91.40;;;;;;5060861;28;20055;-77
2023/08/12 10:50:56;;;;;;;0.00;0.00;;;27.00;89.60;;;;;;5079823;28;20027;-75
2023/08/12 10:53:29;;;;;;;0.30;0.30;;;27.40;86.40;;;;;;5079985;28;20048;-77
2023/08/12 10:56:00;;;;;;;1.05;1.05;;;27.40;85.90;;;;;;5063623;28;20058;-76
2023/08/12 10:58:46;;;;;;;0.00;0.00;;;27.40;84.10;;;;;;5079354;28;20027;-76
2023/08/12 11:01:19;;;;;;;0.20;0.20;;;27.10;83.90;;;;;;5079298;28;20587;-78
2023/08/12 11:03:46;;;;;;;0.75;0.65;;;26.10;84.80;;;;;;5079404;28;20024;-76
2023/08/12 11:06:12;;;;;;;0.05;0.05;;;27.30;84.70;;;;;;5079570;28;20094;-78
2023/08/12 11:08:51;;;;;;;0.60;0.50;;;27.60;87.50;;;;;;5078807;28;20708;-76
2023/08/12 11:11:22;;;;;;;0.22;0.08;;;28.60;84.90;;;;;;5059638;28;20642;-77
2023/08/12 11:13:58;;;;;;;0.32;0.28;;;28.60;82.30;;;;;;5078606;28;20054;-77
2023/08/12 11:16:36;;;;;;;0.30;0.30;;;28.60;80.20;;;;;;5078520;28;20026;-77
2023/08/12 11:19:04;;;;;;;0.03;0.03;;;28.50;78.40;;;;;;5060588;28;20025;-80
2023/08/12 11:21:30;;;;;;;0.40;0.35;;;28.60;78.90;;;;;;5079912;28;20043;-76
2023/08/12 11:23:56;;;;;;;0.13;0.13;;;28.80;79.00;;;;;;5082983;28;20024;-76
2023/08/12 11:26:25;;;;;;;0.03;0.03;;;29.00;77.50;;;;;;5083198;28;20031;-75
2023/08/12 11:28:53;;;;;;;0.30;0.30;;;28.80;77.60;;;;;;5081872;28;20616;-75
2023/08/12 11:31:19;;;;;;;0.10;0.10;;;28.60;76.30;;;;;;5064544;28;20143;-74
2023/08/12 11:33:45;;;;;;;1.25;0.50;;;28.50;77.50;;;;;;5082546;28;20020;-76
2023/08/12 11:36:11;;;;;;;0.73;0.40;;;28.20;77.30;;;;;;5083003;28;20074;-80
2023/08/12 11:38:38;;;;;;;0.10;0.10;;;28.80;79.90;;;;;;5083359;28;20035;-75
2023/08/12 11:41:04;;;;;;;0.10;0.10;;;28.90;76.00;;;;;;5083171;28;20016;-80
2023/08/12 11:43:33;;;;;;;0.10;0.10;;;28.70;75.70;;;;;;5064956;28;20737;-76
2023/08/12 11:45:59;;;;;;;0.10;0.10;;;26.90;73.80;;;;;;5084542;28;20028;-74
2023/08/12 11:48:27;;;;;;;3.08;2.30;;;28.40;76.90;;;;;;5064476;28;20020;-75
2023/08/12 11:50:54;;;;;;;0.20;0.20;;;27.90;74.90;;;;;;5082829;28;20025;-80
2023/08/12 11:53:20;;;;;;;0.30;0.30;;;28.20;75.30;;;;;;5081987;28;20020;-75
2023/08/12 11:55:46;;;;;;;0.00;0.00;;;28.60;74.10;;;;;;5082207;28;20023;-79
2023/08/12 11:58:20;;;;;;;0.75;0.75;;;28.80;76.70;;;;;;5082285;28;20095;-76
2023/08/12 12:00:50;;;;;;;0.20;0.20;;;29.30;73.30;;;;;;5081839;28;20524;-76
2023/08/12 12:03:17;;;;;;;0.20;0.20;;;29.90;73.80;;;;;;5081552;28;20408;-75
2023/08/12 12:05:47;;;;;;;0.10;0.10;;;30.40;71.40;;;;;;5082109;28;20028;-76
2023/08/12 12:08:14;;;;;;;0.55;0.30;;;30.90;71.70;;;;;;5063505;28;20528;-78
2023/08/12 12:10:40;;;;;;;0.10;0.10;;;31.10;69.00;;;;;;5064061;28;20024;-79
2023/08/12 12:13:08;;;;;;;0.10;0.10;;;31.30;71.30;;;;;;5082363;28;20450;-76
2023/08/12 12:15:42;;;;;;;0.10;0.10;;;31.40;67.50;;;;;;5063065;28;20599;-77
2023/08/12 12:18:13;;;;;;;0.00;0.00;;;31.90;67.20;;;;;;5081619;28;20012;-75
2023/08/12 12:20:55;;;;;;;0.10;0.10;;;32.30;66.70;;;;;;5063090;28;20096;-77
2023/08/12 12:23:21;;;;;;;0.22;0.22;;;32.80;66.10;;;;;;5063763;28;20020;-76
2023/08/12 12:25:48;;;;;;;0.30;0.30;;;33.30;66.70;;;;;;5081696;28;20122;-76
2023/08/12 12:28:13;;;;;;;0.60;0.60;;;33.50;64.60;;;;;;5063758;28;20016;-78
2023/08/12 12:30:39;;;;;;;0.45;0.32;;;33.20;64.60;;;;;;5081749;28;20093;-76
2023/08/12 12:33:05;;;;;;;2.47;0.98;;;32.90;62.50;;;;;;5063641;28;20084;-83
2023/08/12 12:35:34;;;;;;;2.80;1.88;;;33.20;63.10;;;;;;5081377;28;20028;-77
2023/08/12 12:37:59;;;;;;;0.55;0.50;;;33.40;64.10;;;;;;5081583;28;20509;-77
2023/08/12 12:40:28;;;;;;;0.28;0.28;;;33.40;63.00;;;;;;5081805;28;20016;-78
2023/08/12 12:42:54;;;;;;;0.32;0.32;;;33.70;62.50;;;;;;5063734;28;20626;-77
2023/08/12 12:45:20;;;;;;;0.20;0.20;;;34.20;62.70;;;;;;5080874;28;20024;-80
2023/08/12 12:47:46;;;;;;;0.30;0.10;;;34.00;62.80;;;;;;5081229;28;20622;-82